Time;durP1;ratioP1;P1;durP2;ratioP2;P2;SDS_P1;SDS_P2;PMS_P1;PMS_P2;Temp;Humidity;BMP_temperature;BMP_pressure;BME280_temperature;BME280_humidity;BME280_pressure;Samples;Min_cycle;Max_cycle;Signal;HPM_P1;HPM_P2
2021/12/07 00:01:04;;;;;;;;;2.00;2.00;;;;;6.99;77.86;100624.47;5037269;28;45850;-77
2021/12/07 00:03:29;;;;;;;;;1.00;0.00;;;;;6.97;77.81;100629.66;5034770;28;46218;-79
2021/12/07 00:05:55;;;;;;;;;1.00;1.00;;;;;6.94;77.78;100633.97;5039223;28;45224;-78
2021/12/07 00:08:20;;;;;;;;;4.50;2.50;;;;;7.00;78.62;100662.91;5038528;28;45398;-79
2021/12/07 00:10:48;;;;;;;;;2.75;2.50;;;;;6.81;78.25;100622.38;5039561;28;45327;-81
2021/12/07 00:13:14;;;;;;;;;6.25;2.00;;;;;7.07;78.14;100647.34;5038381;28;46347;-79
2021/12/07 00:15:39;;;;;;;;;2.25;1.00;;;;;7.01;77.07;100635.84;5038972;28;45418;-79
2021/12/07 00:18:05;;;;;;;;;2.00;2.00;;;;;7.08;77.65;100645.63;5038132;28;45437;-79
2021/12/07 00:20:31;;;;;;;;;5.50;3.00;;;;;7.06;77.86;100637.69;5038377;28;45347;-82
2021/12/07 00:23:01;;;;;;;;;5.00;1.00;;;;;6.88;77.47;100611.13;5038266;28;46881;-80
2021/12/07 00:25:26;;;;;;;;;5.00;3.50;;;;;7.00;77.66;100637.59;5038309;28;45296;-80
2021/12/07 00:27:52;;;;;;;;;4.50;2.25;;;;;6.88;77.69;100620.72;5038003;28;45339;-78
2021/12/07 00:30:18;;;;;;;;;3.00;2.25;;;;;6.95;77.15;100636.59;5038844;28;45361;-80
2021/12/07 00:32:52;;;;;;;;;2.25;0.75;;;;;6.99;77.87;100642.81;5037834;28;46626;-82
2021/12/07 00:37:47;;;;;;;;;5.25;1.50;;;;;6.91;77.67;100626.06;5028484;28;45537;-84
2021/12/07 00:40:14;;;;;;;;;5.50;2.00;;;;;7.00;76.92;100644.56;5038366;28;45659;-78
2021/12/07 00:42:40;;;;;;;;;2.00;2.00;;;;;6.81;77.53;100618.00;5037304;28;45610;-79
2021/12/07 00:45:08;;;;;;;;;2.00;2.00;;;;;7.03;77.06;100657.72;5037806;28;45234;-79
2021/12/07 00:47:34;;;;;;;;;5.25;5.00;;;;;7.05;77.20;100663.88;5036827;28;45508;-79
2021/12/07 00:49:59;;;;;;;;;6.25;2.25;;;;;7.13;76.48;100657.03;5037724;28;45441;-80
2021/12/07 00:52:25;;;;;;;;;4.25;2.00;;;;;7.18;76.45;100657.16;5037811;28;45451;-82
2021/12/07 00:54:50;;;;;;;;;2.00;1.00;;;;;7.22;76.20;100656.34;5036302;28;45329;-80
2021/12/07 00:57:16;;;;;;;;;1.25;0.75;;;;;7.24;76.13;100654.63;5037728;28;45426;-81
2021/12/07 00:59:41;;;;;;;;;4.75;2.00;;;;;7.29;74.93;100659.13;5037814;28;45351;-77
2021/12/07 01:02:07;;;;;;;;;1.50;1.50;;;;;7.26;75.55;100653.84;5037194;28;45291;-81
2021/12/07 01:04:33;;;;;;;;;1.00;1.00;;;;;7.30;74.23;100660.88;5037138;28;45399;-76
2021/12/07 01:07:06;;;;;;;;;4.50;1.50;;;;;7.30;75.13;100660.00;5037564;28;45453;-78
2021/12/07 01:26:09;;;;;;;;;1.50;1.00;;;;;7.19;72.86;100643.19;4919293;28;45493;-81
2021/12/07 01:28:40;;;;;;;;;1.00;1.00;;;;;7.17;72.80;100642.28;4920496;28;45521;-84
2021/12/07 01:31:20;;;;;;;;;4.25;1.00;;;;;7.15;72.89;100634.38;4917921;28;45432;-78
2021/12/07 01:37:06;;;;;;;;;0.00;0.00;;;;;7.04;72.30;100654.25;4913451;28;45379;-78
2021/12/07 01:53:03;;;;;;;;;2.00;1.00;;;;;6.69;73.78;100661.34;4917779;28;45542;-77
2021/12/07 02:01:03;;;;;;;;;1.25;1.00;;;;;6.75;74.25;100669.34;4994944;28;45288;-78
2021/12/07 02:03:29;;;;;;;;;1.25;1.25;;;;;6.74;73.90;100664.97;4995965;28;45706;-81
2021/12/07 02:05:54;;;;;;;;;0.00;0.00;;;;;6.65;74.45;100655.19;4996151;28;47121;-84
2021/12/07 02:08:21;;;;;;;;;0.75;0.75;;;;;6.69;74.68;100672.69;4997088;28;45399;-78
2021/12/07 02:10:47;;;;;;;;;0.00;0.00;;;;;6.63;74.37;100669.09;4997216;28;45413;-80
2021/12/07 02:14:01;;;;;;;;;1.00;1.00;;;;;6.62;74.40;100673.44;4998962;28;45205;-81
2021/12/07 02:16:05;;;;;;;;;0.50;0.50;;;;;6.47;74.71;100654.78;4999723;28;45664;-82
2021/12/07 02:18:30;;;;;;;;;5.25;0.75;;;;;6.54;74.05;100659.28;4999421;28;45344;-84
2021/12/07 02:21:11;;;;;;;;;0.00;0.00;;;;;6.66;73.58;100670.03;4998587;28;45691;-81
2021/12/07 02:23:37;;;;;;;;;0.25;0.25;;;;;6.66;74.27;100670.03;4997978;28;45419;-82
2021/12/07 02:26:02;;;;;;;;;0.00;0.00;;;;;6.60;74.37;100667.25;4999212;28;46497;-80
2021/12/07 02:28:29;;;;;;;;;1.50;1.50;;;;;6.61;74.07;100671.69;4998515;28;45427;-82
2021/12/07 02:30:54;;;;;;;;;1.75;0.75;;;;;6.45;74.07;100653.84;4998251;28;45386;-80
2021/12/07 02:33:20;;;;;;;;;2.00;0.00;;;;;6.48;73.73;100678.34;4997362;28;45509;-78
2021/12/07 02:35:45;;;;;;;;;0.00;0.00;;;;;6.41;74.15;100665.97;4997571;28;46979;-82
2021/12/07 02:38:11;;;;;;;;;0.00;0.00;;;;;6.38;75.12;100665.91;5022095;28;45379;-78
2021/12/07 02:40:37;;;;;;;;;2.00;0.00;;;;;6.35;74.55;100668.47;5023456;28;45325;-78
2021/12/07 02:43:02;;;;;;;;;0.00;0.00;;;;;6.40;74.26;100687.75;5040420;28;45526;-76
2021/12/07 02:45:29;;;;;;;;;2.00;1.00;;;;;6.38;74.53;100680.72;5022634;28;48189;-79
2021/12/07 02:47:55;;;;;;;;;0.00;0.00;;;;;6.37;74.82;100689.41;5040410;28;45260;-81
2021/12/07 02:50:22;;;;;;;;;1.00;1.00;;;;;6.29;75.50;100671.81;5040807;28;45411;-80
2021/12/07 02:52:47;;;;;;;;;0.00;0.00;;;;;6.31;74.85;100689.28;5041127;28;45399;-79
2021/12/07 02:55:13;;;;;;;;;0.00;0.00;;;;;6.12;74.94;100661.78;5040816;28;45490;-78
2021/12/07 02:57:39;;;;;;;;;0.00;0.00;;;;;6.13;74.76;100664.44;5040692;28;45808;-80
2021/12/07 03:00:19;;;;;;;;;0.00;0.00;;;;;6.23;74.70;100686.47;5040391;28;45378;-82
2021/12/07 03:02:53;;;;;;;;;0.00;0.00;;;;;6.12;74.86;100672.25;5032996;28;45551;-81
2021/12/07 03:08:50;;;;;;;;;4.25;1.00;;;;;6.18;75.30;100696.84;5039970;28;46951;-80
2021/12/07 03:27:28;;;;;;;;;4.50;1.00;;;;;6.00;77.03;100696.38;5031348;28;45414;-80
2021/12/07 03:29:54;;;;;;;;;1.50;1.25;;;;;5.93;76.96;100679.63;5022273;28;45635;-81
2021/12/07 03:32:20;;;;;;;;;1.75;1.50;;;;;6.11;77.86;100709.72;5021641;28;45501;-82
2021/12/07 03:34:45;;;;;;;;;1.50;1.50;;;;;6.18;77.50;100715.13;5039631;28;45530;-80
2021/12/07 03:37:11;;;;;;;;;1.00;1.00;;;;;6.28;77.20;100717.13;5039021;28;46113;-78
2021/12/07 03:39:36;;;;;;;;;5.00;2.75;;;;;6.24;76.52;100697.00;5040376;28;45303;-81
2021/12/07 03:42:02;;;;;;;;;0.25;0.25;;;;;6.26;76.57;100684.81;5041035;28;45480;-79
2021/12/07 03:44:27;;;;;;;;;4.50;2.00;;;;;6.44;75.89;100707.03;5040362;28;45407;-80
2021/12/07 03:46:53;;;;;;;;;1.25;1.25;;;;;6.43;76.00;100693.06;5040055;28;45421;-82
2021/12/07 03:49:18;;;;;;;;;0.50;0.50;;;;;6.38;76.29;100676.38;5042299;28;45427;-80
2021/12/07 03:51:44;;;;;;;;;1.50;1.00;;;;;6.45;75.70;100701.84;5048253;28;45635;-84
2021/12/07 03:54:10;;;;;;;;;1.00;1.00;;;;;6.39;76.46;100695.56;5055206;28;45304;-78
2021/12/07 03:56:35;;;;;;;;;2.25;2.00;;;;;6.34;76.43;100685.00;5041263;28;45584;-84
2021/12/07 03:59:01;;;;;;;;;1.50;1.00;;;;;6.45;75.65;100707.06;5021926;28;45443;-80
2021/12/07 04:01:28;;;;;;;;;2.75;1.00;;;;;6.32;75.78;100680.56;5039460;28;45444;-84
2021/12/07 04:03:54;;;;;;;;;2.00;1.00;;;;;6.18;75.88;100670.69;5020647;28;45526;-81
2021/12/07 04:06:21;;;;;;;;;3.50;1.50;;;;;6.24;77.08;100693.50;5039537;28;46193;-85
2021/12/07 04:08:46;;;;;;;;;1.50;1.50;;;;;6.24;76.59;100696.09;5040446;28;45169;-83
2021/12/07 04:11:14;;;;;;;;;2.50;0.50;;;;;6.23;76.06;100682.13;5038878;28;45520;-78
2021/12/07 04:13:44;;;;;;;;;1.25;1.25;;;;;6.11;76.49;100673.09;5039429;28;45491;-79
2021/12/07 04:16:11;;;;;;;;;3.50;1.00;;;;;6.00;76.29;100686.78;5038817;28;46361;-80
2021/12/07 04:18:38;;;;;;;;;0.50;0.50;;;;;6.02;76.18;100696.41;5038739;28;45198;-79
2021/12/07 04:21:04;;;;;;;;;2.25;1.00;;;;;5.96;77.12;100700.66;5038123;28;45406;-79
2021/12/07 04:23:34;;;;;;;;;2.00;2.00;;;;;5.99;76.99;100705.06;5039098;28;45514;-77
2021/12/07 04:26:03;;;;;;;;;0.75;0.00;;;;;5.99;77.34;100713.78;5020670;28;46654;-80
2021/12/07 04:28:28;;;;;;;;;3.00;1.00;;;;;5.95;77.03;100701.47;5038514;28;45458;-78
2021/12/07 04:30:54;;;;;;;;;1.00;1.00;;;;;5.94;76.57;100697.09;5038559;28;45398;-78
2021/12/07 04:33:19;;;;;;;;;0.00;0.00;;;;;5.92;76.82;100697.91;5038244;28;45453;-82
2021/12/07 04:35:47;;;;;;;;;0.00;0.00;;;;;5.85;77.11;100686.38;5038301;28;45326;-77
2021/12/07 04:38:13;;;;;;;;;0.00;0.00;;;;;5.83;77.34;100681.94;5025318;28;45627;-81
2021/12/07 04:40:39;;;;;;;;;1.00;1.00;;;;;5.87;77.18;100697.78;5033654;28;45273;-80
2021/12/07 04:43:07;;;;;;;;;3.00;1.00;;;;;5.85;77.72;100694.22;5037945;28;45523;-81
2021/12/07 04:48:24;;;;;;;;;3.50;1.75;;;;;5.73;77.11;100688.69;5037758;28;45508;-82
2021/12/07 04:59:00;;;;;;;;;1.00;1.00;;;;;5.71;77.90;100691.25;5038141;28;45327;-80
2021/12/07 05:01:26;;;;;;;;;3.25;1.25;;;;;5.69;78.09;100702.53;5037692;28;45367;-79
2021/12/07 05:03:54;;;;;;;;;1.00;1.00;;;;;5.52;77.80;100678.53;5037727;28;45555;-79
2021/12/07 05:06:26;;;;;;;;;1.50;0.75;;;;;5.47;77.97;100663.56;5035451;28;46267;-81
2021/12/07 05:08:58;;;;;;;;;2.50;2.00;;;;;5.52;78.63;100673.31;5036304;28;45386;-77
2021/12/07 05:11:32;;;;;;;;;1.25;1.00;;;;;5.37;78.28;100649.38;5031564;28;45379;-78
2021/12/07 05:14:18;;;;;;;;;1.50;1.50;;;;;5.34;78.53;100658.03;5029685;28;45297;-79
2021/12/07 05:23:54;;;;;;;;;1.25;1.25;;;;;5.57;78.14;100697.81;5037193;28;45463;-80
2021/12/07 05:38:36;;;;;;;;;2.25;2.25;;;;;5.33;79.29;100686.72;5017356;28;45445;-81
2021/12/07 05:41:04;;;;;;;;;6.00;2.00;;;;;5.40;78.89;100699.13;5015823;28;45371;-81
2021/12/07 05:43:31;;;;;;;;;2.00;2.00;;;;;4.76;79.59;100596.38;5014642;28;45327;-81
2021/12/07 05:45:56;;;;;;;;;4.00;2.50;;;;;5.43;79.54;100700.09;5001799;28;45527;-79
2021/12/07 05:48:22;;;;;;;;;4.50;3.00;;;;;5.44;79.08;100701.84;5010469;28;45517;-78
2021/12/07 05:50:47;;;;;;;;;1.00;1.00;;;;;5.34;79.37;100680.66;5001178;28;45927;-78
2021/12/07 05:53:13;;;;;;;;;2.25;2.00;;;;;5.42;79.10;100695.69;4996531;28;45510;-80
2021/12/07 05:55:40;;;;;;;;;3.25;3.00;;;;;5.23;79.40;100664.69;4995922;28;45504;-77
2021/12/07 05:58:08;;;;;;;;;4.75;2.00;;;;;5.29;79.41;100688.34;4996804;28;45380;-83
2021/12/07 06:00:35;;;;;;;;;3.25;2.50;;;;;5.32;79.80;100708.47;5007325;28;45552;-81
2021/12/07 06:03:06;;;;;;;;;3.00;3.00;;;;;5.23;80.08;100703.00;5006915;28;45406;-82
2021/12/07 06:05:34;;;;;;;;;4.00;3.00;;;;;5.18;80.20;100697.63;5036930;28;45380;-83
2021/12/07 06:07:59;;;;;;;;;3.50;2.75;;;;;5.20;79.80;100706.38;5037457;28;47397;-81
2021/12/07 06:10:26;;;;;;;;;5.00;2.25;;;;;5.02;80.48;100690.19;5037388;28;45223;-82
2021/12/07 06:12:52;;;;;;;;;4.50;4.50;;;;;5.19;80.27;100704.59;5020389;28;45377;-83
2021/12/07 06:15:21;;;;;;;;;4.00;3.25;;;;;5.18;80.03;100715.91;5038007;28;45249;-81
2021/12/07 06:17:47;;;;;;;;;6.00;6.00;;;;;5.19;80.48;100707.22;5037082;28;46006;-82
2021/12/07 06:20:14;;;;;;;;;3.00;3.00;;;;;5.20;79.96;100697.66;5036567;28;45614;-81
2021/12/07 06:22:39;;;;;;;;;5.50;5.50;;;;;4.94;80.07;100645.59;5037356;28;45164;-80
2021/12/07 06:25:06;;;;;;;;;6.00;5.50;;;;;5.18;80.02;100681.06;5036712;28;45545;-82
2021/12/07 06:27:32;;;;;;;;;5.00;5.00;;;;;5.23;79.72;100669.03;5036251;28;46876;-80
2021/12/07 06:29:58;;;;;;;;;6.50;4.50;;;;;5.25;79.84;100667.34;5036514;28;45518;-82
2021/12/07 06:32:24;;;;;;;;;3.00;3.00;;;;;5.27;80.27;100663.03;5035874;28;45386;-81
2021/12/07 06:34:50;;;;;;;;;6.75;6.25;;;;;5.15;80.03;100640.09;5036250;28;45435;-81
2021/12/07 06:37:16;;;;;;;;;7.25;7.25;;;;;5.19;80.18;100648.88;5035637;28;46291;-82
2021/12/07 06:39:42;;;;;;;;;3.50;3.50;;;;;5.19;79.97;100639.31;5037613;28;45472;-82
2021/12/07 06:42:07;;;;;;;;;10.25;7.25;;;;;5.17;79.95;100640.13;5035668;28;45518;-80
2021/12/07 06:44:33;;;;;;;;;6.50;5.50;;;;;5.03;80.06;100627.59;5036523;28;45304;-78
2021/12/07 06:46:59;;;;;;;;;5.25;5.25;;;;;5.11;80.48;100644.31;5036646;28;45521;-80
2021/12/07 06:49:25;;;;;;;;;8.00;7.00;;;;;4.98;80.47;100638.75;5036427;28;45365;-79
2021/12/07 06:51:52;;;;;;;;;5.50;4.00;;;;;5.06;80.23;100659.00;5036515;28;45215;-78
2021/12/07 06:54:18;;;;;;;;;6.75;6.75;;;;;5.03;80.67;100652.81;5036161;28;45434;-81
2021/12/07 06:56:44;;;;;;;;;9.50;7.00;;;;;4.96;81.27;100645.66;5037127;28;46276;-80
2021/12/07 06:59:09;;;;;;;;;10.00;6.75;;;;;4.91;81.06;100628.97;5036271;28;45463;-79
2021/12/07 07:01:35;;;;;;;;;9.75;9.50;;;;;4.94;81.24;100622.13;5038638;28;45683;-79
2021/12/07 07:04:01;;;;;;;;;13.25;10.25;;;;;4.92;81.26;100631.59;5039451;28;45479;-81
2021/12/07 07:06:27;;;;;;;;;7.00;6.00;;;;;4.88;81.11;100615.84;5039338;28;45308;-82
2021/12/07 07:08:54;;;;;;;;;14.50;10.75;;;;;4.89;81.49;100621.09;5039779;28;45371;-82
2021/12/07 07:11:20;;;;;;;;;13.50;11.00;;;;;4.86;81.87;100615.78;5039572;28;45178;-81
2021/12/07 07:13:46;;;;;;;;;10.75;10.75;;;;;4.80;81.48;100605.16;5039413;28;45549;-79
2021/12/07 07:16:12;;;;;;;;;15.25;11.00;;;;;4.81;81.93;100607.81;5038757;28;45515;-81
2021/12/07 07:18:39;;;;;;;;;12.50;11.75;;;;;4.77;82.15;100597.25;5036876;28;45690;-81
2021/12/07 07:21:07;;;;;;;;;14.25;13.00;;;;;4.81;82.33;100602.59;5039205;28;45513;-80
2021/12/07 07:23:33;;;;;;;;;13.75;13.00;;;;;4.71;81.95;100587.53;5039585;28;45284;-83
2021/12/07 07:25:58;;;;;;;;;17.00;14.00;;;;;4.73;82.04;100579.72;5038758;28;46288;-77
2021/12/07 07:28:28;;;;;;;;;25.67;20.33;;;;;4.79;82.10;100600.78;5038801;28;45397;-81
2021/12/07 07:30:55;;;;;;;;;25.67;17.00;;;;;4.78;81.92;100599.03;5038423;28;45741;-83
2021/12/07 07:33:20;;;;;;;;;25.00;20.67;;;;;4.74;82.58;100581.50;5023018;28;45610;-81
2021/12/07 07:35:47;;;;;;;;;30.00;25.67;;;;;4.60;82.91;100555.03;5041233;28;47349;-80
2021/12/07 07:38:13;;;;;;;;;29.67;25.00;;;;;4.68;82.57;100569.19;5039121;28;45333;-76
2021/12/07 07:40:39;;;;;;;;;25.33;25.33;;;;;4.67;82.76;100561.31;5038568;28;45461;-77
2021/12/07 07:43:11;;;;;;;;;28.00;27.33;;;;;4.63;83.45;100549.00;5027060;28;45287;-79
2021/12/07 07:45:37;;;;;;;;;33.33;29.33;;;;;4.72;83.32;100562.31;5037644;28;46637;-77
2021/12/07 07:48:03;;;;;;;;;37.67;33.67;;;;;4.73;83.87;100551.03;5037983;28;45323;-79
2021/12/07 07:50:28;;;;;;;;;23.00;22.00;;;;;4.75;83.36;100554.59;5037230;28;45434;-76
2021/12/07 07:52:53;;;;;;;;;34.33;25.33;;;;;4.75;82.87;100541.53;5034238;28;45360;-75
2021/12/07 07:55:19;;;;;;;;;34.67;29.67;;;;;4.84;82.81;100540.06;5038955;28;46099;-77
2021/12/07 07:57:45;;;;;;;;;30.00;26.67;;;;;4.92;83.33;100555.03;5035859;28;45488;-79
2021/12/07 08:00:15;;;;;;;;;28.67;26.33;;;;;4.92;82.89;100547.19;5020544;28;45513;-82
2021/12/07 08:02:42;;;;;;;;;28.00;25.00;;;;;4.91;82.51;100541.09;5038835;28;45613;-81
2021/12/07 08:05:08;;;;;;;;;38.33;35.00;;;;;4.96;82.54;100531.69;5039197;28;45935;-78
2021/12/07 08:07:34;;;;;;;;;38.00;29.00;;;;;5.01;82.56;100534.41;5037720;28;45531;-85
2021/12/07 08:09:59;;;;;;;;;32.00;26.67;;;;;5.07;82.63;100540.66;5038263;28;45505;-86
2021/12/07 08:12:25;;;;;;;;;20.00;17.33;;;;;4.95;82.21;100542.09;5039215;28;45493;-84
2021/12/07 08:14:51;;;;;;;;;33.67;28.33;;;;;4.90;82.47;100517.56;5021664;28;46136;-84
2021/12/07 08:17:28;;;;;;;;;30.00;22.67;;;;;4.48;82.36;100442.53;5040731;28;45258;-80
2021/12/07 08:19:53;;;;;;;;;27.67;22.33;;;;;4.75;81.57;100465.88;5038810;28;45528;-83
2021/12/07 08:22:19;;;;;;;;;26.00;26.00;;;;;5.12;81.57;100526.03;5017941;28;45517;-84
2021/12/07 08:24:45;;;;;;;;;40.00;24.67;;;;;5.00;81.26;100493.47;5039965;28;46152;-80
2021/12/07 08:27:11;;;;;;;;;28.00;26.00;;;;;5.13;81.50;100506.00;5038762;28;45434;-83
2021/12/07 08:29:39;;;;;;;;;26.33;25.33;;;;;4.71;81.64;100422.25;5037350;28;45780;-82
2021/12/07 08:32:05;;;;;;;;;15.67;15.67;;;;;5.19;81.63;100500.03;5038976;28;45302;-81
2021/12/07 08:34:31;;;;;;;;;31.33;24.33;;;;;4.81;82.86;100482.56;5038387;28;46187;-84
2021/12/07 08:36:56;;;;;;;;;20.33;15.67;;;;;4.62;83.21;100474.19;5036585;28;45432;-79
2021/12/07 08:39:21;;;;;;;;;20.00;18.00;;;;;4.58;83.22;100462.81;5036735;28;45315;-82
2021/12/07 08:41:47;;;;;;;;;27.33;22.33;;;;;4.80;83.04;100469.47;5036944;28;45433;-82
2021/12/07 08:44:13;;;;;;;;;28.67;24.67;;;;;4.86;82.59;100467.91;5036274;28;46206;-78
2021/12/07 08:46:39;;;;;;;;;41.00;30.67;;;;;4.75;82.55;100443.28;5019303;28;45284;-80
2021/12/07 08:49:05;;;;;;;;;30.00;24.33;;;;;4.64;82.93;100428.16;5036640;28;45574;-78
2021/12/07 08:51:30;;;;;;;;;32.67;24.33;;;;;4.72;82.35;100434.47;5011392;28;45573;-80
2021/12/07 08:54:20;;;;;;;;;35.67;24.00;;;;;4.65;82.60;100420.38;5038096;28;45404;-85
2021/12/07 08:59:45;;;;;;;;;29.67;28.00;;;;;4.98;82.58;100458.63;5034459;28;45484;-86
2021/12/07 09:02:20;;;;;;;;;23.33;23.00;;;;;4.99;82.57;100466.50;5036221;28;45423;-81
2021/12/07 09:04:46;;;;;;;;;33.00;32.33;;;;;4.78;83.97;100443.34;5037243;28;46652;-79
2021/12/07 09:07:14;;;;;;;;;28.33;23.33;;;;;4.74;83.82;100449.31;5036993;28;45328;-80
2021/12/07 09:09:42;;;;;;;;;23.00;15.00;;;;;4.71;82.92;100414.44;5039844;28;45258;-82
2021/12/07 09:12:09;;;;;;;;;25.00;22.67;;;;;4.19;84.86;100356.59;5044630;28;46107;-83
2021/12/07 09:14:35;;;;;;;;;23.67;18.33;;;;;4.34;85.75;100430.84;5039092;28;45458;-83
2021/12/07 09:17:04;;;;;;;;;25.67;22.33;;;;;3.98;86.44;100345.56;5038355;28;45410;-84
2021/12/07 09:19:30;;;;;;;;;20.67;19.00;;;;;4.48;85.70;100399.09;5037950;28;45394;-84
2021/12/07 09:21:56;;;;;;;;;15.00;15.00;;;;;4.62;84.60;100414.19;5038425;28;45454;-83
2021/12/07 09:24:22;;;;;;;;;28.00;24.00;;;;;4.61;85.58;100399.38;5038569;28;46120;-83
2021/12/07 09:26:48;;;;;;;;;14.67;10.00;;;;;4.46;85.20;100355.53;5045160;28;45292;-83
2021/12/07 09:29:14;;;;;;;;;24.33;19.33;;;;;4.59;85.69;100360.22;5040667;28;45437;-86
2021/12/07 09:31:41;;;;;;;;;13.00;13.00;;;;;4.45;85.37;100357.25;5039938;28;45532;-83
2021/12/07 09:34:06;;;;;;;;;20.00;13.33;;;;;4.43;85.76;100348.50;5038614;28;46289;-85
2021/12/07 09:36:33;;;;;;;;;16.67;16.67;;;;;4.29;85.83;100326.44;5041012;28;45338;-85
2021/12/07 09:38:58;;;;;;;;;19.33;17.00;;;;;4.67;85.69;100373.47;5041495;28;45228;-84
2021/12/07 09:41:25;;;;;;;;;16.33;15.33;;;;;4.43;85.14;100330.25;5038965;28;45454;-85
2021/12/07 09:43:52;;;;;;;;;16.33;12.33;;;;;4.47;84.83;100363.41;5037510;28;46208;-84
2021/12/07 09:46:17;;;;;;;;;14.00;12.33;;;;;4.77;84.87;100393.72;5037829;28;46401;-83
2021/12/07 09:48:44;;;;;;;;;14.00;12.00;;;;;4.43;84.81;100338.06;5037821;28;45317;-84
2021/12/07 09:51:12;;;;;;;;;11.33;10.67;;;;;4.53;84.23;100355.72;5037761;28;45337;-84
2021/12/07 09:53:38;;;;;;;;;14.00;14.00;;;;;4.81;84.40;100382.50;5039102;28;45255;-85
2021/12/07 09:56:06;;;;;;;;;9.00;6.67;;;;;4.81;84.49;100379.91;5039846;28;45314;-84
2021/12/07 09:58:32;;;;;;;;;11.00;10.00;;;;;4.50;84.59;100324.34;5038274;28;45278;-85
2021/12/07 10:00:57;;;;;;;;;15.33;12.33;;;;;4.68;85.10;100365.69;5042583;28;45241;-84
2021/12/07 10:03:23;;;;;;;;;18.00;15.67;;;;;4.58;84.96;100341.09;5045487;28;45601;-84
2021/12/07 10:05:52;;;;;;;;;13.33;13.33;;;;;4.68;85.08;100343.91;5037433;28;45273;-85
2021/12/07 10:08:17;;;;;;;;;12.00;12.00;;;;;4.88;85.44;100370.50;5038050;28;45366;-85
2021/12/07 10:10:54;;;;;;;;;16.00;15.50;;;;;4.96;85.20;100372.44;5037812;28;45427;-85
2021/12/07 10:13:21;;;;;;;;;14.33;14.33;;;;;5.00;85.03;100371.66;5017480;28;46854;-84
2021/12/07 10:15:48;;;;;;;;;20.00;18.00;;;;;4.60;84.53;100275.03;5012237;28;45703;-84
2021/12/07 10:18:15;;;;;;;;;21.33;18.00;;;;;5.21;84.77;100354.72;5018732;28;45290;-85
2021/12/07 10:20:55;;;;;;;;;13.00;11.50;;;;;5.14;84.47;100317.19;5037725;28;45387;-83
2021/12/07 10:23:29;;;;;;;;;17.00;14.67;;;;;5.28;84.50;100334.00;5037334;28;46516;-85
2021/12/07 10:26:05;;;;;;;;;16.50;13.50;;;;;4.94;84.07;100264.53;5037322;28;45413;-86
2021/12/07 10:28:32;;;;;;;;;14.00;12.75;;;;;5.38;84.40;100312.47;5036564;28;45430;-84
2021/12/07 10:31:09;;;;;;;;;13.75;12.50;;;;;5.30;84.04;100287.91;5019303;28;45592;-84
2021/12/07 10:33:46;;;;;;;;;18.50;17.25;;;;;5.47;84.34;100276.94;5033205;28;46195;-85
2021/12/07 10:36:16;;;;;;;;;19.25;13.75;;;;;5.52;84.54;100280.56;5038739;28;45370;-84
2021/12/07 10:38:48;;;;;;;;;17.50;15.75;;;;;5.50;84.33;100267.47;5048036;28;45174;-85
2021/12/07 10:41:18;;;;;;;;;18.75;16.00;;;;;5.49;84.30;100238.66;5041443;28;45419;-84
2021/12/07 10:43:59;;;;;;;;;18.00;16.00;;;;;5.17;83.93;100162.31;5039827;28;45250;-85
2021/12/07 10:46:56;;;;;;;;;13.00;12.50;;;;;5.58;84.04;100224.06;5040353;28;45286;-82
2021/12/07 10:49:32;;;;;;;;;16.00;16.00;;;;;5.54;84.33;100213.53;5041306;28;45350;-84
2021/12/07 10:52:11;;;;;;;;;15.75;14.75;;;;;5.72;84.74;100229.56;5041576;28;45371;-84
2021/12/07 10:54:44;;;;;;;;;17.00;16.00;;;;;5.78;84.27;100208.78;5026467;28;47270;-85
2021/12/07 10:57:16;;;;;;;;;18.00;17.50;;;;;5.84;84.30;100197.53;5043174;28;45245;-85
2021/12/07 10:59:55;;;;;;;;;21.50;16.25;;;;;5.37;83.67;100125.28;5040677;28;45381;-84
2021/12/07 11:02:23;;;;;;;;;13.25;12.50;;;;;5.12;85.31;100100.47;5040388;28;45444;-84
2021/12/07 11:04:50;;;;;;;;;21.00;19.00;;;;;5.66;84.92;100190.22;5039589;28;45580;-84
2021/12/07 11:07:19;;;;;;;;;21.25;16.75;;;;;5.83;84.74;100182.69;5040170;28;45271;-84
2021/12/07 11:10:23;;;;;;;;;21.75;19.25;;;;;5.65;84.41;100131.88;5040339;28;45487;-83
2021/12/07 11:15:26;;;;;;;;;15.75;15.50;;;;;6.13;83.41;100135.28;5042895;28;45364;-82
2021/12/07 11:17:59;;;;;;;;;23.75;16.50;;;;;6.11;82.99;100098.66;5024177;28;45522;-85
2021/12/07 11:20:27;;;;;;;;;18.50;14.50;;;;;6.21;83.04;100105.78;5041985;28;45463;-82
2021/12/07 11:23:02;;;;;;;;;17.50;14.25;;;;;6.13;82.47;100047.25;5043247;28;45303;-85
2021/12/07 11:31:31;;;;;;;;;14.50;10.75;;;;;6.56;81.11;100047.84;5031362;28;45228;-85
2021/12/07 11:34:06;;;;;;;;;14.25;7.50;;;;;6.64;81.79;100040.97;5027325;28;45557;-83
2021/12/07 11:36:36;;;;;;;;;12.00;12.00;;;;;6.46;80.48;100011.97;5045566;28;45565;-83
2021/12/07 11:39:18;;;;;;;;;7.50;5.50;;;;;6.70;81.48;100024.44;5043177;28;45419;-86
2021/12/07 11:41:47;;;;;;;;;15.00;12.50;;;;;6.72;80.67;100025.38;5040053;28;45239;-83
2021/12/07 11:44:13;;;;;;;;;7.00;7.00;;;;;6.63;80.95;100006.94;5039300;28;45474;-84
2021/12/07 11:46:47;;;;;;;;;12.50;7.00;;;;;6.20;81.19;99947.13;5020886;28;46765;-87
2021/12/07 11:49:15;;;;;;;;;10.00;10.00;;;;;6.46;81.71;99964.88;5034174;28;45369;-87
2021/12/07 11:51:44;;;;;;;;;8.00;8.00;;;;;6.38;80.50;99938.63;5054873;28;45438;-88
2021/12/07 11:54:10;;;;;;;;;7.00;7.00;;;;;6.07;80.52;99865.91;5041835;28;45478;-83
2021/12/07 11:56:36;;;;;;;;;9.00;6.50;;;;;6.42;80.68;99914.28;5040403;28;45436;-84
2021/12/07 11:59:04;;;;;;;;;10.00;10.00;;;;;6.78;81.04;99973.94;5040982;28;45423;-79
2021/12/07 12:01:30;;;;;;;;;8.75;6.50;;;;;6.67;80.37;99943.28;5041770;28;45572;-83
2021/12/07 12:03:55;;;;;;;;;11.25;11.25;;;;;6.72;80.25;99932.03;5039103;28;45231;-83
2021/12/07 12:06:20;;;;;;;;;6.25;6.25;;;;;6.60;80.23;99896.97;5038773;28;45483;-80
2021/12/07 12:08:48;;;;;;;;;11.25;11.25;;;;;6.85;80.32;99928.63;5038573;28;45426;-78
2021/12/07 12:11:31;;;;;;;;;10.50;8.00;;;;;6.78;80.02;99916.34;5038875;28;45309;-80
2021/12/07 12:14:34;;;;;;;;;10.00;8.25;;;;;6.78;80.40;99918.97;5039145;28;45264;-79
2021/12/07 12:17:18;;;;;;;;;6.75;5.50;;;;;6.55;80.69;99865.56;5037915;28;46162;-83
2021/12/07 12:20:10;;;;;;;;;10.00;8.25;;;;;6.51;79.66;99845.44;5018804;28;45479;-83
2021/12/07 12:22:46;;;;;;;;;8.25;6.50;;;;;6.65;80.31;99853.44;5037801;28;45576;-83
2021/12/07 12:25:15;;;;;;;;;11.75;10.00;;;;;6.79;80.09;99884.09;5039090;28;45392;-84
2021/12/07 12:27:42;;;;;;;;;5.75;5.75;;;;;6.82;79.72;99871.03;5020704;28;45570;-83
2021/12/07 12:30:26;;;;;;;;;9.50;6.75;;;;;6.88;80.63;99880.66;5038352;28;45383;-82
2021/12/07 12:32:58;;;;;;;;;27.25;20.50;;;;;6.71;79.23;99817.72;5039017;28;45316;-85
2021/12/07 12:35:35;;;;;;;;;6.75;6.00;;;;;7.02;79.05;99849.38;5039374;28;45391;-81
2021/12/07 12:38:02;;;;;;;;;7.75;6.00;;;;;6.98;80.13;99850.19;5039078;28;46936;-81
2021/12/07 12:40:32;;;;;;;;;6.75;6.00;;;;;6.99;79.23;99813.56;5037838;28;45542;-83
2021/12/07 12:43:01;;;;;;;;;1.00;1.00;;;;;6.81;79.17;99761.09;5038178;28;45264;-84
2021/12/07 12:45:28;;;;;;;;;6.00;6.00;;;;;6.98;78.46;99777.78;5038643;28;45175;-83
2021/12/07 12:48:09;;;;;;;;;11.00;7.25;;;;;7.03;78.80;99781.28;5038140;28;45320;-85
2021/12/07 12:50:56;;;;;;;;;5.25;5.25;;;;;6.98;79.41;99749.00;5038430;28;45440;-84
2021/12/07 12:53:35;;;;;;;;;5.00;5.00;;;;;7.13;78.77;99751.66;5037811;28;45530;-83
2021/12/07 12:56:07;;;;;;;;;3.00;3.00;;;;;7.22;78.77;99745.59;5039894;28;45426;-80
2021/12/07 12:58:37;;;;;;;;;7.50;6.50;;;;;7.25;78.78;99739.50;5050901;28;46604;-81
2021/12/07 13:01:11;;;;;;;;;6.00;6.00;;;;;7.27;77.83;99733.41;5042606;28;45249;-88
2021/12/07 13:03:42;;;;;;;;;9.25;7.00;;;;;7.30;78.05;99714.22;5038306;28;45410;-84
2021/12/07 13:06:18;;;;;;;;;7.25;5.00;;;;;7.30;78.12;99729.94;5038742;28;45256;-82
2021/12/07 13:09:19;;;;;;;;;5.00;2.75;;;;;7.25;78.30;99722.03;5036941;28;46213;-81
2021/12/07 13:12:04;;;;;;;;;3.00;1.00;;;;;7.28;77.38;99716.84;4974699;28;45472;-82
2021/12/07 13:14:31;;;;;;;;;6.50;5.25;;;;;7.10;77.37;99695.78;4967993;28;45240;-82
2021/12/07 13:16:59;;;;;;;;;6.00;4.00;;;;;7.29;77.90;99720.31;4976378;28;45568;-83